sensor_id;sensor_type;location;lat;lon;timestamp;pressure;altitude;pressure_sealevel;temperature;humidity
27144;BME280;14672;50.250;8.312;2024-02-15T00:00:37;99161.13;;;13.64;76.55
27144;BME280;14672;50.250;8.312;2024-02-15T00:03:04;99168.09;;;13.63;76.73
27144;BME280;14672;50.250;8.312;2024-02-15T00:05:33;99163.50;;;13.65;76.68
27144;BME280;14672;50.250;8.312;2024-02-15T00:08:02;99162.38;;;13.63;77.20
27144;BME280;14672;50.250;8.312;2024-02-15T00:10:28;99156.69;;;13.72;76.94
27144;BME280;14672;50.250;8.312;2024-02-15T00:12:54;99161.75;;;13.68;76.13
27144;BME280;14672;50.250;8.312;2024-02-15T00:15:20;99163.81;;;13.68;76.49
27144;BME280;14672;50.250;8.312;2024-02-15T00:17:46;99162.22;;;13.67;75.70
27144;BME280;14672;50.250;8.312;2024-02-15T00:20:15;99157.00;;;13.74;76.33
27144;BME280;14672;50.250;8.312;2024-02-15T00:22:43;99157.31;;;13.67;76.47
27144;BME280;14672;50.250;8.312;2024-02-15T00:25:09;99156.38;;;13.70;76.00
27144;BME280;14672;50.250;8.312;2024-02-15T00:27:37;99153.19;;;13.59;75.61
27144;BME280;14672;50.250;8.312;2024-02-15T00:30:04;99149.69;;;13.55;75.87
27144;BME280;14672;50.250;8.312;2024-02-15T00:32:33;99147.44;;;13.50;76.10
27144;BME280;14672;50.250;8.312;2024-02-15T00:35:00;99153.16;;;13.50;75.67
27144;BME280;14672;50.250;8.312;2024-02-15T00:37:25;99152.50;;;13.46;75.31
27144;BME280;14672;50.250;8.312;2024-02-15T00:39:51;99165.22;;;13.45;74.95
27144;BME280;14672;50.250;8.312;2024-02-15T00:42:17;99151.84;;;13.42;75.10
27144;BME280;14672;50.250;8.312;2024-02-15T00:44:42;99163.91;;;13.37;75.42
27144;BME280;14672;50.250;8.312;2024-02-15T00:47:09;99161.22;;;13.33;76.50
27144;BME280;14672;50.250;8.312;2024-02-15T00:49:37;99163.25;;;13.33;75.80
27144;BME280;14672;50.250;8.312;2024-02-15T00:52:03;99164.06;;;13.33;75.40
27144;BME280;14672;50.250;8.312;2024-02-15T00:54:28;99171.31;;;13.25;75.52
27144;BME280;14672;50.250;8.312;2024-02-15T00:56:54;99162.13;;;13.21;75.67
27144;BME280;14672;50.250;8.312;2024-02-15T00:59:20;99172.72;;;13.21;76.16
27144;BME280;14672;50.250;8.312;2024-02-15T01:01:45;99164.81;;;13.25;75.99
27144;BME280;14672;50.250;8.312;2024-02-15T01:04:13;99160.06;;;13.22;76.14
27144;BME280;14672;50.250;8.312;2024-02-15T01:06:39;99158.31;;;13.24;75.94
27144;BME280;14672;50.250;8.312;2024-02-15T01:09:05;99158.31;;;13.24;75.67
27144;BME280;14672;50.250;8.312;2024-02-15T01:11:32;99160.88;;;13.31;77.50
27144;BME280;14672;50.250;8.312;2024-02-15T01:13:58;99166.75;;;13.37;77.11
27144;BME280;14672;50.250;8.312;2024-02-15T01:16:25;99158.06;;;13.40;77.38
27144;BME280;14672;50.250;8.312;2024-02-15T01:18:50;99161.22;;;13.42;77.14
27144;BME280;14672;50.250;8.312;2024-02-15T01:21:16;99167.25;;;13.44;77.14
27144;BME280;14672;50.250;8.312;2024-02-15T01:23:42;99167.41;;;13.50;77.11
27144;BME280;14672;50.250;8.312;2024-02-15T01:26:09;99160.59;;;13.47;77.22
27144;BME280;14672;50.250;8.312;2024-02-15T01:28:36;99154.59;;;13.54;77.30
27144;BME280;14672;50.250;8.312;2024-02-15T01:31:02;99152.38;;;13.58;77.19
27144;BME280;14672;50.250;8.312;2024-02-15T01:33:27;99164.28;;;13.57;77.46
27144;BME280;14672;50.250;8.312;2024-02-15T01:35:53;99155.66;;;13.39;77.28
27144;BME280;14672;50.250;8.312;2024-02-15T01:38:19;99154.72;;;13.42;77.25
27144;BME280;14672;50.250;8.312;2024-02-15T01:40:47;99154.44;;;13.49;77.67
27144;BME280;14672;50.250;8.312;2024-02-15T01:43:13;99148.72;;;13.49;76.97
27144;BME280;14672;50.250;8.312;2024-02-15T01:45:39;99150.94;;;13.45;77.53
27144;BME280;14672;50.250;8.312;2024-02-15T01:48:06;99150.00;;;13.48;78.00
27144;BME280;14672;50.250;8.312;2024-02-15T01:50:33;99148.91;;;13.63;77.77
27144;BME280;14672;50.250;8.312;2024-02-15T01:53:02;99143.66;;;13.53;78.64
27144;BME280;14672;50.250;8.312;2024-02-15T01:55:30;99149.88;;;13.60;78.63
27144;BME280;14672;50.250;8.312;2024-02-15T01:57:56;99154.78;;;13.69;77.56
27144;BME280;14672;50.250;8.312;2024-02-15T02:00:22;99151.75;;;13.63;77.76
27144;BME280;14672;50.250;8.312;2024-02-15T02:02:49;99151.16;;;13.69;78.74
27144;BME280;14672;50.250;8.312;2024-02-15T02:05:16;99150.47;;;13.55;79.03
27144;BME280;14672;50.250;8.312;2024-02-15T02:07:42;99150.66;;;13.70;78.68
27144;BME280;14672;50.250;8.312;2024-02-15T02:10:08;99142.91;;;13.80;77.65
27144;BME280;14672;50.250;8.312;2024-02-15T02:12:38;99139.88;;;13.83;77.07
27144;BME280;14672;50.250;8.312;2024-02-15T02:15:07;99140.84;;;13.80;77.79
27144;BME280;14672;50.250;8.312;2024-02-15T02:17:33;99137.03;;;13.83;77.26
27144;BME280;14672;50.250;8.312;2024-02-15T02:20:01;99132.28;;;13.89;77.64
27144;BME280;14672;50.250;8.312;2024-02-15T02:22:36;99143.09;;;13.85;77.45
27144;BME280;14672;50.250;8.312;2024-02-15T02:25:12;99137.03;;;13.83;77.84
27144;BME280;14672;50.250;8.312;2024-02-15T02:27:39;99139.25;;;13.79;77.72
27144;BME280;14672;50.250;8.312;2024-02-15T02:30:16;99136.41;;;13.79;77.87
27144;BME280;14672;50.250;8.312;2024-02-15T02:32:45;99137.03;;;13.65;79.52
27144;BME280;14672;50.250;8.312;2024-02-15T02:35:14;99137.78;;;13.65;78.79
27144;BME280;14672;50.250;8.312;2024-02-15T02:37:42;99137.03;;;13.83;77.68
27144;BME280;14672;50.250;8.312;2024-02-15T02:40:09;99142.59;;;13.69;78.79
27144;BME280;14672;50.250;8.312;2024-02-15T02:42:55;99148.13;;;13.90;78.66
27144;BME280;14672;50.250;8.312;2024-02-15T02:45:27;99136.06;;;13.86;77.42
27144;BME280;14672;50.250;8.312;2024-02-15T02:47:54;99136.56;;;13.94;77.63
27144;BME280;14672;50.250;8.312;2024-02-15T02:50:21;99139.25;;;13.79;78.37
27144;BME280;14672;50.250;8.312;2024-02-15T02:52:48;99135.44;;;13.73;78.81
27144;BME280;14672;50.250;8.312;2024-02-15T02:55:15;99135.75;;;13.75;78.37
27144;BME280;14672;50.250;8.312;2024-02-15T02:57:41;99134.66;;;13.91;77.97
27144;BME280;14672;50.250;8.312;2024-02-15T03:00:13;99137.22;;;13.89;78.05
27144;BME280;14672;50.250;8.312;2024-02-15T03:02:46;99131.47;;;13.80;78.32
27144;BME280;14672;50.250;8.312;2024-02-15T03:05:12;99137.34;;;13.94;77.83
27144;BME280;14672;50.250;8.312;2024-02-15T03:07:39;99131.81;;;13.91;77.52
27144;BME280;14672;50.250;8.312;2024-02-15T03:10:07;99131.81;;;14.00;77.05
27144;BME280;14672;50.250;8.312;2024-02-15T03:12:37;99134.19;;;14.01;77.14
27144;BME280;14672;50.250;8.312;2024-02-15T03:15:04;99133.88;;;13.99;77.53
27144;BME280;14672;50.250;8.312;2024-02-15T03:17:33;99127.53;;;13.95;77.33
27144;BME280;14672;50.250;8.312;2024-02-15T03:19:59;99126.25;;;13.96;77.34
27144;BME280;14672;50.250;8.312;2024-02-15T03:22:25;99121.97;;;14.01;77.47
27144;BME280;14672;50.250;8.312;2024-02-15T03:24:51;99125.47;;;14.05;76.91
27144;BME280;14672;50.250;8.312;2024-02-15T03:27:17;99116.41;;;13.97;77.14
27144;BME280;14672;50.250;8.312;2024-02-15T03:29:43;99122.44;;;13.99;77.10
27144;BME280;14672;50.250;8.312;2024-02-15T03:32:09;99121.16;;;13.91;77.61
27144;BME280;14672;50.250;8.312;2024-02-15T03:34:37;99125.94;;;14.03;77.39
27144;BME280;14672;50.250;8.312;2024-02-15T03:37:05;99119.88;;;14.01;76.53
27144;BME280;14672;50.250;8.312;2024-02-15T03:39:30;99113.53;;;13.97;77.27
27144;BME280;14672;50.250;8.312;2024-02-15T03:41:58;99110.38;;;13.95;77.36
27144;BME280;14672;50.250;8.312;2024-02-15T03:44:24;99112.91;;;13.93;77.75
27144;BME280;14672;50.250;8.312;2024-02-15T03:46:52;99121.47;;;14.02;77.60
27144;BME280;14672;50.250;8.312;2024-02-15T03:49:19;99111.31;;;14.01;77.11
27144;BME280;14672;50.250;8.312;2024-02-15T03:51:45;99119.44;;;14.03;77.38
27144;BME280;14672;50.250;8.312;2024-02-15T03:54:12;99114.81;;;14.05;76.39
27144;BME280;14672;50.250;8.312;2024-02-15T03:56:49;99112.28;;;14.07;76.86
27144;BME280;14672;50.250;8.312;2024-02-15T03:59:21;99118.31;;;14.09;77.09
27144;BME280;14672;50.250;8.312;2024-02-15T04:01:55;99110.22;;;14.08;76.95
27144;BME280;14672;50.250;8.312;2024-02-15T04:04:22;99111.66;;;14.03;76.56
27144;BME280;14672;50.250;8.312;2024-02-15T04:06:51;99117.84;;;14.11;76.46
27144;BME280;14672;50.250;8.312;2024-02-15T04:09:18;99115.31;;;14.13;76.59
27144;BME280;14672;50.250;8.312;2024-02-15T04:11:49;99119.59;;;14.08;76.32
27144;BME280;14672;50.250;8.312;2024-02-15T04:14:22;99119.25;;;14.16;76.29
27144;BME280;14672;50.250;8.312;2024-02-15T04:16:49;99117.69;;;14.15;75.78
27144;BME280;14672;50.250;8.312;2024-02-15T04:19:15;99119.72;;;14.14;76.02
27144;BME280;14672;50.250;8.312;2024-02-15T04:21:41;99121.31;;;14.15;75.99
27144;BME280;14672;50.250;8.312;2024-02-15T04:24:09;99117.84;;;14.11;75.89
27144;BME280;14672;50.250;8.312;2024-02-15T04:26:35;99115.78;;;14.11;76.38
27144;BME280;14672;50.250;8.312;2024-02-15T04:29:03;99108.31;;;14.14;75.83
27144;BME280;14672;50.250;8.312;2024-02-15T04:31:29;99118.47;;;14.15;76.25
27144;BME280;14672;50.250;8.312;2024-02-15T04:33:55;99105.63;;;14.10;76.09
27144;BME280;14672;50.250;8.312;2024-02-15T04:36:22;99114.03;;;14.05;76.08
27144;BME280;14672;50.250;8.312;2024-02-15T04:38:52;99104.19;;;14.06;76.22
27144;BME280;14672;50.250;8.312;2024-02-15T04:41:18;99101.66;;;13.99;76.96
27144;BME280;14672;50.250;8.312;2024-02-15T04:43:49;99097.38;;;14.13;76.76
27144;BME280;14672;50.250;8.312;2024-02-15T04:46:16;99104.03;;;13.91;77.18
27144;BME280;14672;50.250;8.312;2024-02-15T04:48:42;99103.25;;;14.09;76.77
27144;BME280;14672;50.250;8.312;2024-02-15T04:51:09;99098.00;;;14.17;76.26
27144;BME280;14672;50.250;8.312;2024-02-15T04:53:38;99090.38;;;14.13;76.26
27144;BME280;14672;50.250;8.312;2024-02-15T04:56:07;99092.59;;;14.19;75.80
27144;BME280;14672;50.250;8.312;2024-02-15T04:58:40;99080.22;;;14.13;76.10
27144;BME280;14672;50.250;8.312;2024-02-15T05:01:17;99084.00;;;14.19;76.15
27144;BME280;14672;50.250;8.312;2024-02-15T05:03:44;99081.16;;;14.19;75.82
27144;BME280;14672;50.250;8.312;2024-02-15T05:06:10;99085.63;;;14.20;75.86
27144;BME280;14672;50.250;8.312;2024-02-15T05:08:39;99088.78;;;14.22;75.62
27144;BME280;14672;50.250;8.312;2024-02-15T05:11:12;99078.13;;;14.22;75.55
27144;BME280;14672;50.250;8.312;2024-02-15T05:13:46;99082.41;;;14.18;76.40
27144;BME280;14672;50.250;8.312;2024-02-15T05:16:13;99083.38;;;14.24;75.53
27144;BME280;14672;50.250;8.312;2024-02-15T05:18:38;99079.91;;;14.20;75.35
27144;BME280;14672;50.250;8.312;2024-02-15T05:21:06;99071.16;;;14.14;75.93
27144;BME280;14672;50.250;8.312;2024-02-15T05:23:36;99074.50;;;14.13;76.38
27144;BME280;14672;50.250;8.312;2024-02-15T05:26:11;99081.03;;;14.13;75.99
27144;BME280;14672;50.250;8.312;2024-02-15T05:28:49;99088.47;;;14.01;76.77
27144;BME280;14672;50.250;8.312;2024-02-15T05:31:20;99094.19;;;14.10;76.08
27144;BME280;14672;50.250;8.312;2024-02-15T05:33:46;99088.00;;;14.12;76.13
27144;BME280;14672;50.250;8.312;2024-02-15T05:36:13;99082.75;;;14.10;75.68
27144;BME280;14672;50.250;8.312;2024-02-15T05:38:40;99090.41;;;14.04;76.37
27144;BME280;14672;50.250;8.312;2024-02-15T05:41:07;99091.97;;;14.05;76.07
27144;BME280;14672;50.250;8.312;2024-02-15T05:43:34;99090.56;;;14.01;76.04
27144;BME280;14672;50.250;8.312;2024-02-15T05:46:03;99084.50;;;14.08;75.75
27144;BME280;14672;50.250;8.312;2024-02-15T05:48:28;99087.22;;;14.11;75.59
27144;BME280;14672;50.250;8.312;2024-02-15T05:50:56;99081.50;;;14.02;76.44
27144;BME280;14672;50.250;8.312;2024-02-15T05:53:23;99081.03;;;14.04;76.12
27144;BME280;14672;50.250;8.312;2024-02-15T05:55:50;99074.69;;;14.09;75.69
27144;BME280;14672;50.250;8.312;2024-02-15T05:58:16;99074.69;;;14.09;75.58
27144;BME280;14672;50.250;8.312;2024-02-15T06:00:43;99070.22;;;14.08;75.87
27144;BME280;14672;50.250;8.312;2024-02-15T06:03:10;99069.72;;;14.09;75.70
27144;BME280;14672;50.250;8.312;2024-02-15T06:05:39;99072.63;;;14.00;76.10
27144;BME280;14672;50.250;8.312;2024-02-15T06:08:05;99069.44;;;13.98;76.12
27144;BME280;14672;50.250;8.312;2024-02-15T06:10:31;99056.75;;;13.90;76.15
27144;BME280;14672;50.250;8.312;2024-02-15T06:12:58;99056.13;;;13.95;75.79
27144;BME280;14672;50.250;8.312;2024-02-15T06:15:25;99056.91;;;13.96;75.87
27144;BME280;14672;50.250;8.312;2024-02-15T06:17:52;99067.84;;;13.97;75.57
27144;BME280;14672;50.250;8.312;2024-02-15T06:20:18;99066.91;;;14.00;75.45
27144;BME280;14672;50.250;8.312;2024-02-15T06:22:47;99068.81;;;13.94;75.38
27144;BME280;14672;50.250;8.312;2024-02-15T06:25:13;99069.75;;;13.91;75.18
27144;BME280;14672;50.250;8.312;2024-02-15T06:27:40;99079.91;;;13.83;74.92
27144;BME280;14672;50.250;8.312;2024-02-15T06:30:12;99070.88;;;13.85;76.06
27144;BME280;14672;50.250;8.312;2024-02-15T06:32:57;99068.81;;;13.76;75.57
27144;BME280;14672;50.250;8.312;2024-02-15T06:35:42;99073.72;;;13.76;75.49
27144;BME280;14672;50.250;8.312;2024-02-15T06:38:26;99067.22;;;13.75;75.01
27144;BME280;14672;50.250;8.312;2024-02-15T06:41:12;99062.31;;;13.57;77.27
27144;BME280;14672;50.250;8.312;2024-02-15T06:43:40;99065.63;;;13.56;76.37
27144;BME280;14672;50.250;8.312;2024-02-15T06:46:07;99070.72;;;13.70;76.21
27144;BME280;14672;50.250;8.312;2024-02-15T06:48:33;99070.72;;;13.70;75.80
27144;BME280;14672;50.250;8.312;2024-02-15T06:50:59;99069.59;;;13.58;76.53
27144;BME280;14672;50.250;8.312;2024-02-15T06:53:28;99074.66;;;13.54;76.88
27144;BME280;14672;50.250;8.312;2024-02-15T06:55:55;99077.84;;;13.56;76.56
27144;BME280;14672;50.250;8.312;2024-02-15T06:58:20;99068.34;;;13.69;75.95
27144;BME280;14672;50.250;8.312;2024-02-15T07:00:48;99077.06;;;13.56;76.80
27144;BME280;14672;50.250;8.312;2024-02-15T07:03:16;99073.09;;;13.53;76.33
27144;BME280;14672;50.250;8.312;2024-02-15T07:05:43;99077.69;;;13.51;76.35
27144;BME280;14672;50.250;8.312;2024-02-15T07:08:09;99080.88;;;13.53;76.59
27144;BME280;14672;50.250;8.312;2024-02-15T07:10:40;99085.44;;;13.50;76.62
27144;BME280;14672;50.250;8.312;2024-02-15T07:13:07;99088.94;;;13.54;76.97
27144;BME280;14672;50.250;8.312;2024-02-15T07:15:35;99089.72;;;13.46;77.39
27144;BME280;14672;50.250;8.312;2024-02-15T07:18:07;99088.31;;;13.41;77.43
27144;BME280;14672;50.250;8.312;2024-02-15T07:20:36;99094.81;;;13.51;76.82
27144;BME280;14672;50.250;8.312;2024-02-15T07:23:02;99094.00;;;13.50;77.77
27144;BME280;14672;50.250;8.312;2024-02-15T07:25:29;99090.06;;;13.57;77.60
27144;BME280;14672;50.250;8.312;2024-02-15T07:27:55;99096.25;;;13.64;77.00
27144;BME280;14672;50.250;8.312;2024-02-15T07:30:22;99094.03;;;13.59;77.53
27144;BME280;14672;50.250;8.312;2024-02-15T07:32:49;99087.34;;;13.62;76.95
27144;BME280;14672;50.250;8.312;2024-02-15T07:35:15;99086.75;;;13.68;76.78
27144;BME280;14672;50.250;8.312;2024-02-15T07:37:55;99086.25;;;13.60;76.87
27144;BME280;14672;50.250;8.312;2024-02-15T07:40:24;99086.56;;;13.62;77.59
27144;BME280;14672;50.250;8.312;2024-02-15T07:42:56;99083.56;;;13.75;76.72
27144;BME280;14672;50.250;8.312;2024-02-15T07:45:23;99087.53;;;13.77;76.83
27144;BME280;14672;50.250;8.312;2024-02-15T07:47:48;99101.97;;;13.74;77.33
27144;BME280;14672;50.250;8.312;2024-02-15T07:50:17;99095.78;;;13.75;76.95
27144;BME280;14672;50.250;8.312;2024-02-15T07:52:47;99100.88;;;13.80;77.38
27144;BME280;14672;50.250;8.312;2024-02-15T07:55:13;99103.38;;;13.78;77.03
27144;BME280;14672;50.250;8.312;2024-02-15T07:57:39;99099.91;;;13.83;77.01
27144;BME280;14672;50.250;8.312;2024-02-15T08:00:06;99103.09;;;13.85;76.68
27144;BME280;14672;50.250;8.312;2024-02-15T08:02:39;99096.75;;;13.81;77.09
27144;BME280;14672;50.250;8.312;2024-02-15T08:05:10;99102.44;;;13.90;77.17
27144;BME280;14672;50.250;8.312;2024-02-15T08:07:44;99102.28;;;13.94;76.86
27144;BME280;14672;50.250;8.312;2024-02-15T08:10:11;99102.44;;;13.99;76.12
27144;BME280;14672;50.250;8.312;2024-02-15T08:12:45;99097.53;;;14.00;76.89
27144;BME280;14672;50.250;8.312;2024-02-15T08:15:11;99090.84;;;13.94;76.95
27144;BME280;14672;50.250;8.312;2024-02-15T08:17:42;99094.03;;;13.96;77.02
27144;BME280;14672;50.250;8.312;2024-02-15T08:20:10;99094.50;;;13.94;76.76
27144;BME280;14672;50.250;8.312;2024-02-15T08:22:37;99095.16;;;14.07;76.20
27144;BME280;14672;50.250;8.312;2024-02-15T08:25:12;99104.97;;;14.06;76.42
27144;BME280;14672;50.250;8.312;2024-02-15T08:27:41;99095.94;;;14.08;76.22
27144;BME280;14672;50.250;8.312;2024-02-15T08:30:11;99098.97;;;14.04;76.20
27144;BME280;14672;50.250;8.312;2024-02-15T08:32:38;99097.03;;;14.01;76.46
27144;BME280;14672;50.250;8.312;2024-02-15T08:35:06;99090.69;;;14.16;75.74
27144;BME280;14672;50.250;8.312;2024-02-15T08:37:35;99090.06;;;14.11;76.39
27144;BME280;14672;50.250;8.312;2024-02-15T08:40:09;99087.66;;;14.10;76.04
27144;BME280;14672;50.250;8.312;2024-02-15T08:42:44;99085.63;;;14.01;76.30
27144;BME280;14672;50.250;8.312;2024-02-15T08:45:11;99091.97;;;13.96;77.24
27144;BME280;14672;50.250;8.312;2024-02-15T08:47:42;99091.50;;;14.16;76.25
27144;BME280;14672;50.250;8.312;2024-02-15T08:50:12;99090.69;;;14.06;76.10
27144;BME280;14672;50.250;8.312;2024-02-15T08:52:38;99100.69;;;14.11;76.48
27144;BME280;14672;50.250;8.312;2024-02-15T08:55:09;99095.78;;;13.93;76.97
27144;BME280;14672;50.250;8.312;2024-02-15T08:57:36;99086.88;;;14.19;75.82
27144;BME280;14672;50.250;8.312;2024-02-15T09:00:05;99092.91;;;14.21;76.09
27144;BME280;14672;50.250;8.312;2024-02-15T09:02:47;99099.91;;;14.10;76.16
27144;BME280;14672;50.250;8.312;2024-02-15T09:05:15;99102.47;;;14.08;76.40
27144;BME280;14672;50.250;8.312;2024-02-15T09:07:45;99108.78;;;14.22;75.96
27144;BME280;14672;50.250;8.312;2024-02-15T09:10:15;99098.63;;;14.21;76.02
27144;BME280;14672;50.250;8.312;2024-02-15T09:12:44;99101.47;;;14.30;75.54
27144;BME280;14672;50.250;8.312;2024-02-15T09:15:13;99091.63;;;14.31;75.52
27144;BME280;14672;50.250;8.312;2024-02-15T09:17:43;99092.88;;;14.30;75.73
27144;BME280;14672;50.250;8.312;2024-02-15T09:20:13;99088.16;;;14.36;75.17
27144;BME280;14672;50.250;8.312;2024-02-15T09:22:52;99089.72;;;14.46;75.20
27144;BME280;14672;50.250;8.312;2024-02-15T09:25:21;99089.41;;;14.44;74.87
27144;BME280;14672;50.250;8.312;2024-02-15T09:27:51;99085.91;;;14.49;75.41
27144;BME280;14672;50.250;8.312;2024-02-15T09:30:17;99087.63;;;14.65;74.12
27144;BME280;14672;50.250;8.312;2024-02-15T09:32:44;99082.38;;;14.63;74.56
27144;BME280;14672;50.250;8.312;2024-02-15T09:35:11;99081.09;;;14.64;74.73
27144;BME280;14672;50.250;8.312;2024-02-15T09:37:42;99082.38;;;14.63;73.98
27144;BME280;14672;50.250;8.312;2024-02-15T09:40:13;99079.94;;;14.71;74.20
27144;BME280;14672;50.250;8.312;2024-02-15T09:42:40;99081.38;;;14.66;73.85
27144;BME280;14672;50.250;8.312;2024-02-15T09:45:08;99082.88;;;14.94;73.05
27144;BME280;14672;50.250;8.312;2024-02-15T09:47:39;99077.69;;;14.84;72.86
27144;BME280;14672;50.250;8.312;2024-02-15T09:50:15;99073.94;;;15.01;72.92
27144;BME280;14672;50.250;8.312;2024-02-15T09:52:49;99078.84;;;15.01;74.38
27144;BME280;14672;50.250;8.312;2024-02-15T09:55:16;99073.31;;;15.30;72.08
27144;BME280;14672;50.250;8.312;2024-02-15T09:57:45;99068.19;;;15.34;72.52
27144;BME280;14672;50.250;8.312;2024-02-15T10:00:14;99062.72;;;15.69;71.13
27144;BME280;14672;50.250;8.312;2024-02-15T10:02:49;99069.97;;;15.32;71.37
27144;BME280;14672;50.250;8.312;2024-02-15T10:05:17;99066.84;;;15.92;69.94
27144;BME280;14672;50.250;8.312;2024-02-15T10:07:45;99070.47;;;15.92;69.67
27144;BME280;14672;50.250;8.312;2024-02-15T10:10:29;99066.16;;;15.97;70.36
27144;BME280;14672;50.250;8.312;2024-02-15T10:12:55;99067.88;;;16.33;69.62
27144;BME280;14672;50.250;8.312;2024-02-15T10:15:37;99062.53;;;16.26;69.16
27144;BME280;14672;50.250;8.312;2024-02-15T10:18:10;99065.66;;;15.98;69.33
27144;BME280;14672;50.250;8.312;2024-02-15T10:20:38;99065.59;;;16.37;68.24
27144;BME280;14672;50.250;8.312;2024-02-15T10:25:35;99060.06;;;16.33;67.91
27144;BME280;14672;50.250;8.312;2024-02-15T10:28:12;99064.81;;;16.51;67.99
27144;BME280;14672;50.250;8.312;2024-02-15T10:30:43;99061.44;;;16.53;66.85
27144;BME280;14672;50.250;8.312;2024-02-15T10:33:10;99059.59;;;16.64;67.32
27144;BME280;14672;50.250;8.312;2024-02-15T10:35:36;99058.19;;;16.45;67.15
27144;BME280;14672;50.250;8.312;2024-02-15T10:38:11;99050.69;;;16.48;67.45
27144;BME280;14672;50.250;8.312;2024-02-15T10:40:40;99039.78;;;16.37;68.00
27144;BME280;14672;50.250;8.312;2024-02-15T10:43:09;99039.91;;;16.42;67.25
27144;BME280;14672;50.250;8.312;2024-02-15T10:45:39;99031.81;;;16.12;68.09
27144;BME280;14672;50.250;8.312;2024-02-15T10:48:11;99037.94;;;16.19;67.44
27144;BME280;14672;50.250;8.312;2024-02-15T10:50:40;99028.72;;;16.15;68.42
27144;BME280;14672;50.250;8.312;2024-02-15T10:53:30;99034.16;;;16.13;68.46
27144;BME280;14672;50.250;8.312;2024-02-15T10:56:09;99018.53;;;16.14;68.80
27144;BME280;14672;50.250;8.312;2024-02-15T10:58:50;99023.88;;;16.07;69.06
27144;BME280;14672;50.250;8.312;2024-02-15T11:01:18;99015.75;;;16.05;67.90
27144;BME280;14672;50.250;8.312;2024-02-15T11:04:00;99011.63;;;16.06;67.74
27144;BME280;14672;50.250;8.312;2024-02-15T11:06:30;99019.81;;;15.98;67.90
27144;BME280;14672;50.250;8.312;2024-02-15T11:08:59;99010.63;;;15.94;68.05
27144;BME280;14672;50.250;8.312;2024-02-15T11:11:27;99002.34;;;16.11;67.92
27144;BME280;14672;50.250;8.312;2024-02-15T11:14:23;99006.09;;;16.17;68.32
27144;BME280;14672;50.250;8.312;2024-02-15T11:16:49;99003.81;;;16.07;68.10
27144;BME280;14672;50.250;8.312;2024-02-15T11:22:01;98998.59;;;16.20;67.99
27144;BME280;14672;50.250;8.312;2024-02-15T11:24:31;98988.41;;;16.19;68.48
27144;BME280;14672;50.250;8.312;2024-02-15T11:27:06;98990.19;;;16.31;68.01
27144;BME280;14672;50.250;8.312;2024-02-15T11:29:51;98969.22;;;16.39;68.43
27144;BME280;14672;50.250;8.312;2024-02-15T11:32:37;98976.19;;;16.53;67.58
27144;BME280;14672;50.250;8.312;2024-02-15T11:35:10;98971.97;;;16.63;67.29
27144;BME280;14672;50.250;8.312;2024-02-15T11:37:49;98970.84;;;16.75;66.89
27144;BME280;14672;50.250;8.312;2024-02-15T11:43:10;98970.69;;;17.19;64.93
27144;BME280;14672;50.250;8.312;2024-02-15T11:45:58;98975.06;;;16.95;65.28
27144;BME280;14672;50.250;8.312;2024-02-15T11:48:26;98974.84;;;16.98;65.48
27144;BME280;14672;50.250;8.312;2024-02-15T11:50:51;98966.88;;;16.87;65.50
27144;BME280;14672;50.250;8.312;2024-02-15T11:53:17;98962.19;;;16.90;64.82
27144;BME280;14672;50.250;8.312;2024-02-15T11:55:43;98956.09;;;16.82;65.25
27144;BME280;14672;50.250;8.312;2024-02-15T11:58:10;98964.47;;;16.86;64.31
27144;BME280;14672;50.250;8.312;2024-02-15T12:00:37;98964.16;;;16.99;63.96
27144;BME280;14672;50.250;8.312;2024-02-15T12:03:23;98949.28;;;17.00;63.54
27144;BME280;14672;50.250;8.312;2024-02-15T12:06:08;98948.94;;;17.13;63.69
27144;BME280;14672;50.250;8.312;2024-02-15T12:08:54;98947.56;;;17.08;63.47
27144;BME280;14672;50.250;8.312;2024-02-15T12:11:41;98950.38;;;17.03;63.91
27144;BME280;14672;50.250;8.312;2024-02-15T12:14:26;98949.78;;;16.78;63.97
27144;BME280;14672;50.250;8.312;2024-02-15T12:17:13;98951.50;;;16.90;63.87
27144;BME280;14672;50.250;8.312;2024-02-15T12:20:03;98958.53;;;16.89;64.14
27144;BME280;14672;50.250;8.312;2024-02-15T12:22:47;98950.81;;;16.96;63.63
27144;BME280;14672;50.250;8.312;2024-02-15T12:25:16;98948.94;;;17.13;63.63
27144;BME280;14672;50.250;8.312;2024-02-15T12:27:45;98951.22;;;17.09;64.03
27144;BME280;14672;50.250;8.312;2024-02-15T12:30:19;98940.19;;;17.22;63.66
27144;BME280;14672;50.250;8.312;2024-02-15T12:32:49;98939.47;;;17.27;63.80
27144;BME280;14672;50.250;8.312;2024-02-15T12:35:20;98943.50;;;17.35;63.64
27144;BME280;14672;50.250;8.312;2024-02-15T12:38:00;98935.06;;;17.52;63.37
27144;BME280;14672;50.250;8.312;2024-02-15T12:40:36;98939.16;;;17.65;63.15
27144;BME280;14672;50.250;8.312;2024-02-15T12:43:05;98939.47;;;17.67;62.44
27144;BME280;14672;50.250;8.312;2024-02-15T12:45:32;98931.75;;;17.79;62.74
27144;BME280;14672;50.250;8.312;2024-02-15T12:48:05;98929.47;;;17.89;62.61
27144;BME280;14672;50.250;8.312;2024-02-15T12:50:34;98919.28;;;17.88;62.32
27144;BME280;14672;50.250;8.312;2024-02-15T12:53:01;98919.69;;;17.75;62.43
27144;BME280;14672;50.250;8.312;2024-02-15T12:55:30;98911.88;;;17.55;61.75
27144;BME280;14672;50.250;8.312;2024-02-15T12:58:12;98923.63;;;17.77;61.89
27144;BME280;14672;50.250;8.312;2024-02-15T13:00:39;98915.94;;;17.69;61.91
27144;BME280;14672;50.250;8.312;2024-02-15T13:03:09;98917.38;;;17.79;61.59
27144;BME280;14672;50.250;8.312;2024-02-15T13:05:41;98917.25;;;17.68;61.93
27144;BME280;14672;50.250;8.312;2024-02-15T13:08:07;98918.34;;;17.70;61.39
27144;BME280;14672;50.250;8.312;2024-02-15T13:10:36;98917.88;;;17.77;61.86
27144;BME280;14672;50.250;8.312;2024-02-15T13:13:03;98916.75;;;17.69;62.00
27144;BME280;14672;50.250;8.312;2024-02-15T13:15:29;98908.28;;;17.60;61.87
27144;BME280;14672;50.250;8.312;2024-02-15T13:17:59;98909.31;;;17.57;61.89
27144;BME280;14672;50.250;8.312;2024-02-15T13:20:26;98895.41;;;17.56;61.44